createdAt,value
2019-05-05T00:01:14.678Z,4.78
2019-05-05T00:04:00.720Z,4.72
2019-05-05T00:06:29.196Z,4.73
2019-05-05T00:08:57.436Z,4.78
2019-05-05T00:11:42.070Z,4.76
2019-05-05T00:14:17.682Z,4.71
2019-05-05T00:16:50.272Z,4.69
2019-05-05T00:19:29.711Z,4.79
2019-05-05T00:21:48.448Z,4.78
2019-05-05T00:24:16.722Z,4.77
2019-05-05T00:26:46.025Z,4.73
2019-05-05T00:29:14.957Z,4.69
2019-05-05T00:31:45.277Z,4.61
2019-05-05T00:34:14.863Z,4.59
2019-05-05T00:36:44.574Z,4.70
2019-05-05T00:39:14.962Z,4.69
2019-05-05T00:41:44.894Z,4.59
2019-05-05T00:44:15.266Z,4.62
2019-05-05T00:46:47.484Z,4.64
2019-05-05T00:49:15.755Z,4.54
2019-05-05T00:51:44.409Z,4.62
2019-05-05T00:54:14.752Z,4.57
2019-05-05T00:56:44.869Z,4.52
2019-05-05T00:59:14.741Z,4.54
2019-05-05T01:01:56.373Z,4.59
2019-05-05T01:04:35.290Z,4.55
2019-05-05T01:07:04.944Z,4.52
2019-05-05T01:09:34.456Z,4.50
2019-05-05T01:12:04.351Z,4.45
2019-05-05T01:14:34.258Z,4.43
2019-05-05T01:17:02.738Z,4.46
2019-05-05T01:19:30.966Z,4.55
2019-05-05T01:21:59.239Z,4.45
2019-05-05T01:24:27.474Z,4.43
2019-05-05T01:26:55.758Z,4.43
2019-05-05T01:29:25.244Z,4.40
2019-05-05T01:31:55.794Z,4.35
2019-05-05T01:34:25.667Z,4.40
2019-05-05T01:36:55.586Z,4.42
2019-05-05T01:39:37.397Z,4.37
2019-05-05T01:42:07.298Z,4.37
2019-05-05T01:44:35.530Z,4.39
2019-05-05T01:47:05.356Z,4.38
2019-05-05T01:49:34.499Z,4.42
2019-05-05T01:52:04.352Z,4.36
2019-05-05T01:54:35.166Z,4.43
2019-05-05T01:57:05.282Z,4.36
2019-05-05T01:59:35.209Z,4.31
2019-05-05T02:02:04.339Z,4.27
2019-05-05T02:04:34.322Z,4.21
2019-05-05T02:07:05.281Z,4.16
2019-05-05T02:09:35.217Z,4.19
2019-05-05T02:12:04.996Z,4.24
2019-05-05T02:14:35.016Z,4.14
2019-05-05T02:17:04.903Z,4.11
2019-05-05T02:19:34.862Z,4.21
2019-05-05T02:22:05.097Z,4.17
2019-05-05T02:24:32.837Z,4.12
2019-05-05T02:27:01.066Z,4.02
2019-05-05T02:29:44.554Z,4.01
2019-05-05T02:32:19.998Z,3.99
2019-05-05T02:34:55.945Z,4.08
2019-05-05T02:37:25.635Z,4.28
2019-05-05T02:40:01.416Z,4.18
2019-05-05T02:42:25.072Z,3.92
2019-05-05T02:44:54.382Z,3.71
2019-05-05T02:47:34.835Z,3.81
2019-05-05T02:50:05.550Z,3.90
2019-05-05T02:52:34.734Z,4.00
2019-05-05T02:55:04.091Z,4.07
2019-05-05T02:57:34.445Z,4.00
2019-05-05T03:00:04.556Z,3.78
2019-05-05T03:02:35.317Z,3.76
2019-05-05T03:05:04.255Z,3.80
2019-05-05T03:07:34.424Z,3.74
2019-05-05T03:10:03.728Z,3.89
2019-05-05T03:12:34.497Z,3.86
2019-05-05T03:15:04.161Z,3.87
2019-05-05T03:17:34.105Z,3.76
2019-05-05T03:20:04.107Z,3.69
2019-05-05T03:22:34.099Z,3.61
2019-05-05T03:25:04.524Z,3.58
2019-05-05T03:27:34.125Z,3.58
2019-05-05T03:30:04.947Z,3.52
2019-05-05T03:32:36.007Z,3.59
2019-05-05T03:35:04.260Z,3.70
2019-05-05T03:37:34.331Z,3.63
2019-05-05T03:40:04.387Z,3.76
2019-05-05T03:42:40.047Z,3.80
2019-05-05T03:45:09.921Z,3.76
2019-05-05T03:47:38.197Z,3.70
2019-05-05T03:50:07.177Z,3.55
2019-05-05T03:52:35.464Z,3.52
2019-05-05T03:55:07.538Z,3.42
2019-05-05T03:57:35.167Z,3.44
2019-05-05T04:00:04.307Z,3.52
2019-05-05T04:02:49.495Z,3.40
2019-05-05T04:05:28.353Z,3.27
2019-05-05T04:07:56.642Z,3.44
2019-05-05T04:10:24.871Z,3.49
2019-05-05T04:12:54.028Z,3.56
2019-05-05T04:15:24.494Z,3.50
2019-05-05T04:18:00.198Z,3.44
2019-05-05T04:20:30.144Z,3.50
2019-05-05T04:22:58.482Z,3.55
2019-05-05T04:25:26.720Z,3.56
2019-05-05T04:27:54.956Z,3.58
2019-05-05T04:30:23.805Z,3.62
2019-05-05T04:32:54.370Z,3.69
2019-05-05T04:35:24.458Z,3.72
2019-05-05T04:37:54.267Z,3.80
2019-05-05T04:40:24.016Z,3.86
2019-05-05T04:42:54.456Z,3.77
2019-05-05T04:45:24.070Z,3.88
2019-05-05T04:48:04.312Z,3.96
2019-05-05T04:50:34.658Z,3.98
2019-05-05T04:53:04.647Z,4.05
2019-05-05T04:55:33.746Z,4.19
2019-05-05T04:58:02.125Z,4.33
2019-05-05T05:00:30.386Z,4.42
2019-05-05T05:03:09.167Z,4.48
2019-05-05T05:05:55.630Z,4.64
2019-05-05T05:08:24.723Z,4.69
2019-05-05T05:10:54.254Z,4.81
2019-05-05T05:13:24.483Z,4.88
2019-05-05T05:15:53.943Z,4.90
2019-05-05T05:18:24.020Z,4.95
2019-05-05T05:20:54.653Z,5.09
2019-05-05T05:23:24.479Z,5.15
2019-05-05T05:25:54.249Z,5.23
2019-05-05T05:28:23.671Z,5.32
2019-05-05T05:30:54.342Z,5.45
2019-05-05T05:33:23.844Z,5.44
2019-05-05T05:35:54.415Z,5.38
2019-05-05T05:38:24.208Z,5.44
2019-05-05T05:40:56.725Z,5.50
2019-05-05T05:43:43.992Z,5.63
2019-05-05T05:46:16.909Z,5.66
2019-05-05T05:49:04.507Z,5.77
2019-05-05T05:51:34.101Z,5.92
2019-05-05T05:54:03.758Z,6.10
2019-05-05T05:56:34.164Z,6.18
2019-05-05T05:59:03.667Z,6.29
2019-05-05T06:01:32.102Z,6.51
2019-05-05T06:04:00.376Z,6.34
2019-05-05T06:06:28.606Z,6.36
2019-05-05T06:08:56.890Z,6.14
2019-05-05T06:11:25.121Z,6.06
2019-05-05T06:13:54.509Z,5.79
2019-05-05T06:16:23.569Z,5.76
2019-05-05T06:18:51.918Z,5.90
2019-05-05T06:21:20.180Z,6.12
2019-05-05T06:23:48.406Z,6.29
2019-05-05T06:26:16.699Z,6.40
2019-05-05T06:28:44.956Z,6.24
2019-05-05T06:31:14.145Z,6.36
2019-05-05T06:33:43.837Z,6.29
2019-05-05T06:36:14.165Z,6.22
2019-05-05T06:38:43.718Z,6.04
2019-05-05T06:41:19.607Z,5.96
2019-05-05T06:43:58.512Z,5.91
2019-05-05T06:46:28.431Z,5.78
2019-05-05T06:48:56.679Z,5.75
2019-05-05T06:51:24.934Z,5.77
2019-05-05T06:53:53.980Z,5.90
2019-05-05T06:56:23.791Z,5.95
2019-05-05T06:58:53.997Z,5.87
2019-05-05T07:01:22.012Z,5.94
2019-05-05T07:03:50.279Z,6.00
2019-05-05T07:06:18.794Z,6.20
2019-05-05T07:08:47.071Z,6.28
2019-05-05T07:11:15.344Z,6.34
2019-05-05T07:13:44.307Z,6.36
2019-05-05T07:16:14.918Z,6.43
2019-05-05T07:18:44.609Z,6.53
2019-05-05T07:21:14.269Z,6.53
2019-05-05T07:23:44.513Z,6.56
2019-05-05T07:26:14.422Z,6.73
2019-05-05T07:28:44.758Z,6.79
2019-05-05T07:31:14.313Z,6.70
2019-05-05T07:33:43.783Z,6.74
2019-05-05T07:36:16.898Z,6.76
2019-05-05T07:38:46.772Z,6.91
2019-05-05T07:41:15.042Z,7.11
2019-05-05T07:43:43.763Z,7.21
2019-05-05T07:46:13.569Z,7.00
2019-05-05T07:48:44.081Z,7.23
2019-05-05T07:51:13.973Z,7.38
2019-05-05T07:53:44.044Z,7.56
2019-05-05T07:56:14.281Z,7.96
2019-05-05T07:58:43.845Z,7.94
2019-05-05T08:01:14.118Z,7.97
2019-05-05T08:03:44.393Z,8.13
2019-05-05T08:06:14.352Z,8.30
2019-05-05T08:08:44.279Z,8.54
2019-05-05T08:11:14.505Z,8.77
2019-05-05T08:13:44.287Z,8.89
2019-05-05T08:16:29.996Z,8.81
2019-05-05T08:19:13.741Z,8.53
2019-05-05T08:21:43.599Z,8.25
2019-05-05T08:24:13.999Z,8.33
2019-05-05T08:26:46.890Z,8.71
2019-05-05T08:29:34.559Z,8.84
2019-05-05T08:32:10.062Z,8.88
2019-05-05T08:34:38.374Z,8.84
2019-05-05T08:37:06.700Z,8.26
2019-05-05T08:39:35.129Z,8.12
2019-05-05T08:42:04.315Z,8.62
2019-05-05T08:44:34.259Z,9.00
2019-05-05T08:47:04.479Z,9.32
2019-05-05T08:49:34.654Z,9.66
2019-05-05T08:52:03.996Z,9.97
2019-05-05T08:54:34.397Z,9.39
2019-05-05T08:57:04.215Z,8.88
2019-05-05T08:59:33.705Z,8.37
2019-05-05T09:02:04.330Z,7.96
2019-05-05T09:04:34.032Z,7.77
2019-05-05T09:07:04.782Z,8.40
2019-05-05T09:09:33.491Z,9.04
2019-05-05T09:12:01.915Z,9.54
2019-05-05T09:14:30.138Z,9.97
2019-05-05T09:16:58.424Z,10.00
2019-05-05T09:19:26.648Z,10.10
2019-05-05T09:21:54.922Z,9.70
2019-05-05T09:24:29.334Z,8.87
2019-05-05T09:27:03.637Z,8.40
2019-05-05T09:29:36.448Z,8.25
2019-05-05T09:32:05.472Z,8.24
2019-05-05T09:34:34.173Z,8.68
2019-05-05T09:37:04.116Z,8.94
2019-05-05T09:39:34.558Z,9.30
2019-05-05T09:42:04.131Z,9.74
2019-05-05T09:44:34.573Z,9.96
2019-05-05T09:47:04.524Z,9.92
2019-05-05T09:49:33.844Z,10.08
2019-05-05T09:52:02.364Z,10.26
2019-05-05T09:54:30.647Z,10.34
2019-05-05T09:56:58.885Z,10.41
2019-05-05T09:59:27.159Z,10.58
2019-05-05T10:01:55.394Z,10.59
2019-05-05T10:04:25.153Z,9.76
2019-05-05T10:06:53.380Z,9.72
2019-05-05T10:09:21.667Z,10.23
2019-05-05T10:11:49.902Z,10.67
2019-05-05T10:14:18.141Z,10.34
2019-05-05T10:16:46.432Z,9.62
2019-05-05T10:19:14.670Z,9.22
2019-05-05T10:21:44.367Z,9.03
2019-05-05T10:24:31.197Z,8.85
2019-05-05T10:26:59.704Z,8.95
2019-05-05T10:29:27.930Z,8.96
2019-05-05T10:31:56.358Z,8.99
2019-05-05T10:34:24.581Z,9.36
2019-05-05T10:36:53.577Z,9.18
2019-05-05T10:39:24.113Z,8.92
2019-05-05T10:41:54.691Z,8.84
2019-05-05T10:44:22.616Z,8.86
2019-05-05T10:46:50.882Z,8.81
2019-05-05T10:49:19.111Z,8.80
2019-05-05T10:51:47.377Z,8.90
2019-05-05T10:54:15.607Z,8.97
2019-05-05T10:56:44.036Z,9.00
2019-05-05T10:59:12.262Z,9.31
2019-05-05T11:01:40.547Z,9.42
2019-05-05T11:04:08.779Z,9.32
2019-05-05T11:06:37.013Z,9.53
2019-05-05T11:09:07.924Z,9.57
2019-05-05T11:11:36.166Z,9.31
2019-05-05T11:14:04.446Z,9.14
2019-05-05T11:16:32.874Z,8.98
2019-05-05T11:19:01.203Z,8.89
2019-05-05T11:21:29.737Z,8.83
2019-05-05T11:23:58.191Z,8.83
2019-05-05T11:26:26.494Z,8.97
2019-05-05T11:28:54.785Z,9.01
2019-05-05T11:31:23.922Z,9.62
2019-05-05T11:33:54.307Z,10.02
2019-05-05T11:36:24.381Z,9.89
2019-05-05T11:38:53.679Z,9.85
2019-05-05T11:41:24.129Z,9.90
2019-05-05T11:43:53.447Z,9.53
2019-05-05T11:46:21.840Z,9.38
2019-05-05T11:48:50.114Z,9.25
2019-05-05T11:51:18.338Z,9.25
2019-05-05T11:53:46.675Z,9.17
2019-05-05T11:56:14.915Z,9.14
2019-05-05T11:58:44.228Z,9.24
2019-05-05T12:01:13.883Z,9.42
2019-05-05T12:03:44.146Z,9.39
2019-05-05T12:06:14.461Z,9.39
2019-05-05T12:08:45.467Z,9.44
2019-05-05T12:11:12.247Z,9.72
2019-05-05T12:13:40.632Z,10.09
2019-05-05T12:16:09.128Z,9.83
2019-05-05T12:18:37.356Z,9.80
2019-05-05T12:21:05.632Z,9.83
2019-05-05T12:23:34.264Z,9.78
2019-05-05T12:26:24.369Z,10.01
2019-05-05T12:28:57.309Z,10.01
2019-05-05T12:31:33.977Z,9.85
2019-05-05T12:34:03.952Z,9.60
2019-05-05T12:36:34.167Z,9.46
2019-05-05T12:39:04.057Z,9.49
2019-05-05T12:41:32.351Z,9.48
2019-05-05T12:44:03.302Z,9.45
2019-05-05T12:46:51.417Z,9.46
2019-05-05T12:49:22.539Z,9.58
2019-05-05T12:51:49.641Z,9.67
2019-05-05T12:54:17.857Z,9.74
2019-05-05T12:56:46.090Z,10.40
2019-05-05T12:59:16.017Z,10.67
2019-05-05T13:01:44.333Z,10.47
2019-05-05T13:04:14.104Z,10.27
2019-05-05T13:06:44.861Z,10.01
2019-05-05T13:09:13.667Z,10.01
2019-05-05T13:11:43.605Z,9.86
2019-05-05T13:14:14.133Z,9.67
2019-05-05T13:16:50.657Z,9.72
2019-05-05T13:19:14.645Z,9.60
2019-05-05T13:22:01.122Z,9.77
2019-05-05T13:24:34.391Z,9.97
2019-05-05T13:27:10.010Z,10.25
2019-05-05T13:29:36.701Z,10.78
2019-05-05T13:32:04.944Z,10.91
2019-05-05T13:34:33.208Z,10.77
2019-05-05T13:37:03.485Z,10.55
2019-05-05T13:39:31.430Z,11.02
2019-05-05T13:41:59.738Z,11.64
2019-05-05T13:44:45.802Z,11.34
2019-05-05T13:47:14.042Z,11.02
2019-05-05T13:49:43.669Z,10.71
2019-05-05T13:52:13.903Z,10.70
2019-05-05T13:54:43.864Z,11.30
2019-05-05T13:57:14.242Z,11.41
2019-05-05T13:59:44.330Z,11.42
2019-05-05T14:02:13.768Z,11.15
2019-05-05T14:04:43.800Z,10.93
2019-05-05T14:07:12.243Z,11.07
2019-05-05T14:09:40.463Z,11.08
2019-05-05T14:12:08.752Z,11.03
2019-05-05T14:14:36.975Z,11.28
2019-05-05T14:17:05.245Z,10.99
2019-05-05T14:19:34.056Z,10.76
2019-05-05T14:22:04.384Z,10.83
2019-05-05T14:24:34.377Z,11.07
2019-05-05T14:27:04.498Z,10.92
2019-05-05T14:29:40.009Z,10.99
2019-05-05T14:32:09.741Z,11.02
2019-05-05T14:34:39.626Z,10.85
2019-05-05T14:37:11.151Z,10.99
2019-05-05T14:39:39.522Z,10.99
2019-05-05T14:42:07.942Z,11.03
2019-05-05T14:44:36.410Z,11.12
2019-05-05T14:47:04.834Z,10.93
2019-05-05T14:49:33.929Z,11.02
2019-05-05T14:52:04.318Z,10.93
2019-05-05T14:54:34.158Z,10.86
2019-05-05T14:57:04.568Z,10.91
2019-05-05T14:59:34.064Z,10.97
2019-05-05T15:02:04.142Z,10.80
2019-05-05T15:04:34.578Z,10.70
2019-05-05T15:07:07.086Z,10.72
2019-05-05T15:09:37.010Z,10.73
2019-05-05T15:12:14.361Z,10.74
2019-05-05T15:14:43.953Z,10.69
2019-05-05T15:17:14.186Z,10.71
2019-05-05T15:19:43.593Z,10.83
2019-05-05T15:22:14.843Z,10.82
2019-05-05T15:24:44.013Z,10.78
2019-05-05T15:27:12.311Z,10.71
2019-05-05T15:29:40.536Z,10.69
2019-05-05T15:32:08.825Z,10.58
2019-05-05T15:34:37.097Z,10.37
2019-05-05T15:37:05.513Z,10.22
2019-05-05T15:39:33.757Z,10.07
2019-05-05T15:42:02.030Z,9.98
2019-05-05T15:44:30.417Z,9.92
2019-05-05T15:46:58.693Z,9.95
2019-05-05T15:49:27.047Z,9.91
2019-05-05T15:51:55.323Z,9.84
2019-05-05T15:54:23.788Z,9.79
2019-05-05T15:57:03.090Z,9.72
2019-05-05T15:59:23.892Z,9.71
2019-05-05T16:01:54.717Z,9.72
2019-05-05T16:04:23.618Z,9.74
2019-05-05T16:06:54.047Z,9.77
2019-05-05T16:09:22.658Z,9.73
2019-05-05T16:11:50.905Z,9.68
2019-05-05T16:14:19.628Z,9.65
2019-05-05T16:16:49.578Z,9.64
2019-05-05T16:19:27.855Z,9.59
2019-05-05T16:21:59.272Z,9.56
2019-05-05T16:24:33.617Z,9.54
2019-05-05T16:27:05.394Z,9.49
2019-05-05T16:29:33.655Z,9.46
2019-05-05T16:32:04.179Z,9.38
2019-05-05T16:34:33.713Z,9.43
2019-05-05T16:37:03.850Z,9.41
2019-05-05T16:39:33.537Z,9.46
2019-05-05T16:42:02.121Z,9.46
2019-05-05T16:44:30.347Z,9.42
2019-05-05T16:46:58.628Z,9.38
2019-05-05T16:49:26.953Z,9.41
2019-05-05T16:52:00.907Z,9.46
2019-05-05T16:54:30.867Z,9.54
2019-05-05T16:56:59.159Z,9.71
2019-05-05T16:59:27.388Z,9.83
2019-05-05T17:01:55.951Z,9.76
2019-05-05T17:04:24.477Z,9.59
2019-05-05T17:06:54.626Z,9.45
2019-05-05T17:09:24.089Z,9.39
2019-05-05T17:12:10.568Z,9.34
2019-05-05T17:14:44.485Z,9.34
2019-05-05T17:17:20.086Z,9.33
2019-05-05T17:19:49.965Z,9.29
2019-05-05T17:22:22.375Z,9.21
2019-05-05T17:24:50.634Z,9.09
2019-05-05T17:27:18.943Z,9.07
2019-05-05T17:29:47.407Z,9.08
2019-05-05T17:32:15.709Z,9.08
2019-05-05T17:34:44.924Z,9.03
2019-05-05T17:37:13.548Z,9.03
2019-05-05T17:39:43.762Z,9.05
2019-05-05T17:42:28.830Z,9.01
2019-05-05T17:45:03.584Z,8.95
2019-05-05T17:47:34.304Z,8.94
2019-05-05T17:50:04.914Z,8.91
2019-05-05T17:52:44.111Z,8.89
2019-05-05T17:55:28.981Z,8.89
2019-05-05T17:58:01.666Z,8.89
2019-05-05T18:00:29.622Z,8.86
2019-05-05T18:02:57.901Z,8.85
2019-05-05T18:05:44.748Z,8.84
2019-05-05T18:08:31.108Z,8.86
2019-05-05T18:11:00.994Z,8.79
2019-05-05T18:13:36.952Z,8.80
2019-05-05T18:16:05.759Z,8.80
2019-05-05T18:18:33.995Z,8.78
2019-05-05T18:21:02.267Z,8.76
2019-05-05T18:23:30.510Z,8.73
2019-05-05T18:25:58.801Z,8.75
2019-05-05T18:28:27.049Z,8.77
2019-05-05T18:30:55.327Z,8.73
2019-05-05T18:33:24.653Z,8.73
2019-05-05T18:35:54.083Z,8.69
2019-05-05T18:38:23.595Z,8.69
2019-05-05T18:40:53.277Z,8.66
2019-05-05T18:43:24.250Z,8.62
2019-05-05T18:46:04.575Z,8.66
2019-05-05T18:48:34.503Z,8.63
2019-05-05T18:51:03.902Z,8.60
2019-05-05T18:53:34.147Z,8.61
2019-05-05T18:56:03.754Z,8.65
2019-05-05T18:58:34.157Z,8.64
2019-05-05T19:01:24.151Z,8.64
2019-05-05T19:04:04.269Z,8.63
2019-05-05T19:06:37.194Z,8.61
2019-05-05T19:09:08.750Z,8.61
2019-05-05T19:11:36.996Z,8.58
2019-05-05T19:14:05.368Z,8.56
2019-05-05T19:16:34.598Z,8.57
2019-05-05T19:19:03.621Z,8.54
2019-05-05T19:21:34.039Z,8.52
2019-05-05T19:24:03.936Z,8.52
2019-05-05T19:26:33.750Z,8.50
2019-05-05T19:29:04.996Z,8.52
2019-05-05T19:31:36.288Z,8.50
2019-05-05T19:34:04.065Z,8.47
2019-05-05T19:36:34.252Z,8.45
2019-05-05T19:39:04.123Z,8.46
2019-05-05T19:41:34.618Z,8.44
2019-05-05T19:44:04.710Z,8.42
2019-05-05T19:46:51.169Z,8.39
2019-05-05T19:49:24.090Z,8.31
2019-05-05T19:51:54.110Z,8.26
2019-05-05T19:54:22.275Z,8.25
2019-05-05T19:56:50.573Z,8.24
2019-05-05T19:59:18.803Z,8.16
2019-05-05T20:01:47.251Z,8.16
2019-05-05T20:04:15.492Z,8.10
2019-05-05T20:06:44.335Z,8.08
2019-05-05T20:09:14.192Z,8.04
2019-05-05T20:11:43.822Z,8.04
2019-05-05T20:14:14.876Z,8.07
2019-05-05T20:17:04.301Z,8.00
2019-05-05T20:19:34.249Z,7.95
2019-05-05T20:22:02.707Z,7.97
2019-05-05T20:24:30.927Z,7.91
2019-05-05T20:26:59.369Z,7.92
2019-05-05T20:29:27.739Z,7.95
2019-05-05T20:31:56.718Z,7.87
2019-05-05T20:34:43.115Z,7.81
2019-05-05T20:37:15.945Z,7.77
2019-05-05T20:39:44.276Z,7.75
2019-05-05T20:42:14.695Z,7.68
2019-05-05T20:44:43.744Z,7.66
2019-05-05T20:47:12.513Z,7.66
2019-05-05T20:49:40.792Z,7.61
2019-05-05T20:52:09.038Z,7.57
2019-05-05T20:54:37.308Z,7.59
2019-05-05T20:57:05.544Z,7.52
2019-05-05T20:59:34.357Z,7.50
2019-05-05T21:02:04.427Z,7.47
2019-05-05T21:04:34.565Z,7.36
2019-05-05T21:07:04.469Z,7.29
2019-05-05T21:09:34.449Z,7.28
2019-05-05T21:12:04.761Z,7.23
2019-05-05T21:14:37.265Z,7.22
2019-05-05T21:17:04.019Z,7.17
2019-05-05T21:19:34.626Z,7.11
2019-05-05T21:22:20.842Z,7.07
2019-05-05T21:24:49.130Z,6.96
2019-05-05T21:27:17.356Z,6.89
2019-05-05T21:29:45.630Z,6.87
2019-05-05T21:32:13.951Z,6.84
2019-05-05T21:34:44.362Z,6.87
2019-05-05T21:37:14.150Z,6.82
2019-05-05T21:39:42.317Z,6.78
2019-05-05T21:42:10.555Z,6.76
2019-05-05T21:44:39.039Z,6.77
2019-05-05T21:47:07.263Z,6.79
2019-05-05T21:49:35.505Z,6.78
2019-05-05T21:52:08.454Z,6.71
2019-05-05T21:54:44.132Z,6.73
2019-05-05T21:57:30.059Z,6.63
2019-05-05T21:59:59.071Z,6.61
2019-05-05T22:02:27.401Z,6.58
2019-05-05T22:04:55.831Z,6.53
2019-05-05T22:07:24.249Z,6.48
2019-05-05T22:09:54.016Z,6.50
2019-05-05T22:12:24.324Z,6.52
2019-05-05T22:14:54.782Z,6.48
2019-05-05T22:17:22.439Z,6.43
2019-05-05T22:19:54.176Z,6.33
2019-05-05T22:22:23.967Z,6.37
2019-05-05T22:24:54.102Z,6.29
2019-05-05T22:27:23.775Z,6.19
2019-05-05T22:29:53.986Z,6.14
2019-05-05T22:32:22.199Z,6.12
2019-05-05T22:34:50.432Z,6.06
2019-05-05T22:37:18.717Z,6.13
2019-05-05T22:39:46.961Z,6.11
2019-05-05T22:42:15.807Z,6.13
2019-05-05T22:44:44.356Z,6.07
2019-05-05T22:47:13.902Z,6.06
2019-05-05T22:49:44.337Z,6.09
2019-05-05T22:52:14.313Z,6.04
2019-05-05T22:54:44.281Z,6.02
2019-05-05T22:57:14.057Z,5.94
2019-05-05T22:59:42.305Z,5.96
2019-05-05T23:02:10.526Z,5.92
2019-05-05T23:04:43.877Z,5.91
2019-05-05T23:07:16.394Z,5.90
2019-05-05T23:09:44.678Z,5.90
2019-05-05T23:12:13.654Z,5.92
2019-05-05T23:14:43.693Z,5.84
2019-05-05T23:17:26.179Z,5.79
2019-05-05T23:20:13.872Z,5.76
2019-05-05T23:23:04.752Z,5.76
2019-05-05T23:25:37.775Z,5.73
2019-05-05T23:28:06.003Z,5.77
2019-05-05T23:30:41.414Z,5.76
2019-05-05T23:33:04.215Z,5.73
2019-05-05T23:35:34.316Z,5.67
2019-05-05T23:38:03.543Z,5.70
2019-05-05T23:40:33.856Z,5.71
2019-05-05T23:43:01.982Z,5.64
2019-05-05T23:45:30.209Z,5.66
2019-05-05T23:47:58.495Z,5.79
2019-05-05T23:50:26.725Z,5.85
2019-05-05T23:52:55.002Z,5.81
2019-05-05T23:55:24.135Z,5.80
2019-05-05T23:57:54.776Z,5.77
